Terminal Aerodrome Forecast
Issued by NWS

Home | Current Version | Previous Version | Text Only | Print | Product List | Glossary Off
Versions: 1 2 3 4 5 6 7 8 9 10 11 12 13 14 15 16 17 18 19 20 21 22 23 24 25

000
FTUS43 KTOP 150800 AAA
TAFMHK
TAF AMD
KMHK 150800Z 1508/1606 15009KT P6SM BKN009 BKN080
     FM150900 08009KT P6SM -SHRA BKN011 OVC035
     FM151100 36012G20KT P6SM -SHRA SCT011 OVC060
     FM151500 31014G22KT P6SM OVC015=

USA.gov is the U.S. government's official web portal to all federal, state and local government web resources and services.